createdAt,value
2023-04-23T00:50:42.713Z,15.43
2023-04-23T01:00:46.924Z,14.75
2023-04-23T01:10:51.802Z,17.17
2023-04-23T01:20:54.104Z,15.88
2023-04-23T01:30:59.115Z,18.27
2023-04-23T01:41:07.475Z,17.77
2023-04-23T01:51:12.426Z,15.60
2023-04-23T02:01:16.940Z,18.80
2023-04-23T02:11:19.516Z,15.75
2023-04-23T02:21:25.554Z,16.88
2023-04-23T02:31:27.803Z,16.30
2023-04-23T02:41:30.413Z,19.20
2023-04-23T02:51:34.688Z,18.13
2023-04-23T03:01:39.326Z,16.25
2023-04-23T03:11:45.394Z,19.17
2023-04-23T03:21:51.811Z,16.48
2023-04-23T03:31:56.966Z,17.00
2023-04-23T03:42:05.665Z,20.80
2023-04-23T03:52:09.291Z,22.55
2023-04-23T04:02:18.252Z,20.45
2023-04-23T04:12:24.296Z,18.58
2023-04-23T04:22:26.512Z,18.45
2023-04-23T04:32:30.233Z,15.57
2023-04-23T04:42:32.497Z,16.05
2023-04-23T04:52:37.629Z,18.17
2023-04-23T05:02:40.113Z,17.67
2023-04-23T05:12:44.852Z,20.70
2023-04-23T05:22:47.275Z,19.48
2023-04-23T05:32:49.932Z,15.95
2023-04-23T05:42:52.336Z,19.13
2023-04-23T05:52:54.716Z,15.18
2023-04-23T06:03:01.889Z,20.02
2023-04-23T06:13:06.890Z,14.07
2023-04-23T06:23:15.750Z,13.27
2023-04-23T06:33:25.182Z,12.85
2023-04-23T06:43:30.866Z,11.40
2023-04-23T06:53:53.657Z,13.27
2023-04-23T07:03:56.084Z,10.77
2023-04-23T07:14:02.621Z,11.35
2023-04-23T07:24:07.530Z,12.48
2023-04-23T07:34:10.223Z,10.40
2023-04-23T07:44:14.745Z,7.97
2023-04-23T07:54:25.217Z,12.68
2023-04-23T08:04:32.777Z,9.52
2023-04-23T08:14:35.551Z,11.35
2023-04-23T08:24:43.346Z,7.82
2023-04-23T08:34:45.593Z,7.03
2023-04-23T08:44:47.913Z,5.57
2023-04-23T08:54:54.011Z,5.85
2023-04-23T09:04:56.561Z,8.70
2023-04-23T09:15:11.570Z,5.72
2023-04-23T09:25:20.324Z,6.72
2023-04-23T09:35:28.473Z,4.18
2023-04-23T09:45:31.362Z,5.60
2023-04-23T09:55:43.988Z,5.43
2023-04-23T10:06:00.602Z,6.03
2023-04-23T10:16:20.725Z,3.47
2023-04-23T10:26:26.235Z,5.72
2023-04-23T10:36:29.302Z,3.55
2023-04-23T10:46:32.108Z,4.22
2023-04-23T10:56:34.443Z,3.55
2023-04-23T11:06:48.292Z,4.82
2023-04-23T11:16:50.981Z,4.60
2023-04-23T11:26:58.500Z,5.55
2023-04-23T11:37:01.581Z,5.45
2023-04-23T11:47:06.190Z,4.13
2023-04-23T11:57:11.091Z,6.93
2023-04-23T12:07:26.375Z,8.13
2023-04-23T12:17:34.805Z,5.35
2023-04-23T12:27:42.912Z,5.55
2023-04-23T12:37:50.512Z,4.50
2023-04-23T12:47:57.728Z,4.78
2023-04-23T12:58:07.168Z,2.95
2023-04-23T13:08:11.912Z,4.22
2023-04-23T13:18:14.345Z,4.07
2023-04-23T13:28:17.579Z,4.60
2023-04-23T13:38:19.778Z,3.63
2023-04-23T13:48:22.647Z,8.00
2023-04-23T13:58:29.880Z,3.75
2023-04-23T14:08:32.104Z,6.35
2023-04-23T14:18:34.257Z,5.30
2023-04-23T14:28:45.326Z,3.42
2023-04-23T14:38:52.295Z,5.22
2023-04-23T14:48:54.467Z,4.28
2023-04-23T14:58:59.046Z,3.65
2023-04-23T15:09:04.207Z,4.05
2023-04-23T15:19:10.402Z,8.85
2023-04-23T15:29:19.244Z,4.68
2023-04-23T15:39:21.740Z,5.28
2023-04-23T15:49:23.837Z,3.67
2023-04-23T15:59:25.974Z,4.60
2023-04-23T16:09:30.437Z,3.88
2023-04-23T16:19:35.326Z,6.35
2023-04-23T16:29:38.346Z,5.80
2023-04-23T16:39:43.885Z,4.95
2023-04-23T16:49:46.514Z,5.72
2023-04-23T16:59:48.754Z,4.35
2023-04-23T17:09:51.671Z,6.18
2023-04-23T17:19:55.101Z,5.35
2023-04-23T17:29:57.316Z,5.53
2023-04-23T17:40:00.088Z,5.55
2023-04-23T17:50:06.532Z,4.45
2023-04-23T18:00:10.347Z,9.82
2023-04-23T18:10:18.046Z,8.20
2023-04-23T18:20:25.156Z,7.13
2023-04-23T18:30:29.960Z,6.55
2023-04-23T18:40:32.316Z,5.20
2023-04-23T18:50:44.608Z,8.65
2023-04-23T19:00:51.651Z,6.30
2023-04-23T19:10:53.820Z,5.88
2023-04-23T19:20:58.562Z,6.18
2023-04-23T19:31:03.135Z,6.38
2023-04-23T19:41:11.441Z,7.43
2023-04-23T19:51:14.986Z,6.13
2023-04-23T20:01:18.193Z,8.90
2023-04-23T20:11:29.590Z,6.90
2023-04-23T20:21:35.046Z,6.78
2023-04-23T20:31:38.441Z,7.15
2023-04-23T20:41:40.684Z,7.32
2023-04-23T20:51:43.156Z,7.65
2023-04-23T21:01:45.476Z,10.50
2023-04-23T21:11:52.746Z,8.65
2023-04-23T21:22:01.467Z,7.13
2023-04-23T21:32:06.163Z,7.30
2023-04-23T21:42:11.178Z,6.97
2023-04-23T21:52:17.642Z,10.45
2023-04-23T22:02:23.187Z,8.35
2023-04-23T22:12:28.740Z,8.43
2023-04-23T22:22:31.328Z,6.70
2023-04-23T22:32:41.165Z,7.35
2023-04-23T22:42:47.562Z,9.18
2023-04-23T22:52:55.466Z,8.18
2023-04-23T23:02:58.105Z,14.52
2023-04-23T23:13:01.563Z,8.82
2023-04-23T23:23:04.205Z,12.50
2023-04-23T23:33:09.924Z,8.45
2023-04-23T23:43:12.537Z,11.38
2023-04-23T23:53:14.720Z,8.15
